Terminal Aerodrome Forecast
Issued by NWS Wilmington, NC

Home | Current Version | Previous Version | Text Only | Print | Product List | Glossary On
Versions: 1 2 3 4 5 6 7 8 9 10 11 12 13 14 15 16 17 18 19 20 21
000
FTUS42 KILM 011700
TAFLBT
TAF
KLBT 011722Z 0118/0218 19005KT P6SM SCT025 SCT050
      TEMPO 0208/0212 3SM BR SCT009
     FM021400 25005KT P6SM SCT025=

USA.gov is the U.S. government's official web portal to all federal, state and local government web resources and services.